Time;durP1;ratioP1;P1;durP2;ratioP2;P2;SDS_P1;SDS_P2;PMS_P1;PMS_P2;Temp;Humidity;BMP_temperature;BMP_pressure;BME280_temperature;BME280_humidity;BME280_pressure;Samples;Min_cycle;Max_cycle;Signal;HPM_P1;HPM_P2
2021/12/03 00:02:05;;;;;;;10.18;5.18;;;;;;;;;;5088330;28;20416;-70
2021/12/03 00:04:32;;;;;;;10.02;5.75;;;;;;;;;;5087509;28;20053;-68
2021/12/03 00:06:58;;;;;;;8.85;5.18;;;;;;;;;;5082759;28;20568;-70
2021/12/03 00:09:25;;;;;;;6.57;5.05;;;;;;;;;;5076311;28;20059;-71
2021/12/03 00:11:51;;;;;;;6.28;5.28;;;;;;;;;;5084046;28;20055;-71
2021/12/03 00:14:17;;;;;;;6.05;5.50;;;;;;;;;;5081914;28;20494;-71
2021/12/03 00:16:43;;;;;;;9.25;5.65;;;;;;;;;;5091544;28;20050;-70
2021/12/03 00:19:10;;;;;;;9.18;5.28;;;;;;;;;;5074522;28;20084;-70
2021/12/03 00:21:37;;;;;;;10.80;5.53;;;;;;;;;;5077586;28;20564;-70
2021/12/03 00:24:04;;;;;;;8.73;5.60;;;;;;;;;;5081375;28;20583;-72
2021/12/03 00:26:30;;;;;;;7.38;5.43;;;;;;;;;;5076822;28;20060;-71
2021/12/03 00:28:56;;;;;;;9.95;5.45;;;;;;;;;;5073883;28;20531;-71
2021/12/03 00:31:23;;;;;;;7.40;5.28;;;;;;;;;;5078735;28;20514;-72
2021/12/03 00:33:49;;;;;;;8.00;6.43;;;;;;;;;;5092093;28;20060;-71
2021/12/03 00:36:15;;;;;;;12.75;6.18;;;;;;;;;;5079329;28;20049;-70
2021/12/03 00:38:44;;;;;;;9.00;5.65;;;;;;;;;;5089360;28;20082;-70
2021/12/03 00:41:14;;;;;;;5.88;5.00;;;;;;;;;;5091921;28;20079;-71
2021/12/03 00:43:44;;;;;;;10.10;5.68;;;;;;;;;;5093153;28;20572;-71
2021/12/03 00:46:12;;;;;;;10.15;5.30;;;;;;;;;;5075639;28;20053;-71
2021/12/03 00:48:38;;;;;;;10.82;6.05;;;;;;;;;;5086226;28;20057;-71
2021/12/03 00:51:06;;;;;;;9.15;5.25;;;;;;;;;;5076582;28;20049;-70
2021/12/03 00:53:32;;;;;;;10.82;5.75;;;;;;;;;;5085756;28;20063;-70
2021/12/03 00:55:59;;;;;;;15.30;5.70;;;;;;;;;;5072381;28;20088;-70
2021/12/03 00:58:25;;;;;;;9.07;5.60;;;;;;;;;;5076222;28;20145;-71
2021/12/03 01:00:51;;;;;;;10.48;5.45;;;;;;;;;;5078410;28;20057;-70
2021/12/03 01:03:18;;;;;;;7.60;5.45;;;;;;;;;;5086088;28;20051;-71
2021/12/03 01:05:45;;;;;;;11.25;5.57;;;;;;;;;;5082432;28;20497;-72
2021/12/03 01:08:11;;;;;;;9.25;5.55;;;;;;;;;;5086348;28;20053;-71
2021/12/03 01:10:38;;;;;;;13.60;6.18;;;;;;;;;;5081818;28;20527;-72
2021/12/03 01:13:04;;;;;;;10.02;6.00;;;;;;;;;;5081062;28;20053;-71
2021/12/03 01:15:33;;;;;;;8.80;5.85;;;;;;;;;;5079426;28;20143;-71
2021/12/03 01:18:00;;;;;;;11.00;6.43;;;;;;;;;;5078302;28;20055;-72
2021/12/03 01:20:27;;;;;;;10.73;6.18;;;;;;;;;;5064345;28;20108;-71
2021/12/03 01:22:53;;;;;;;10.70;6.10;;;;;;;;;;5065644;28;20057;-71
2021/12/03 01:25:20;;;;;;;13.23;6.15;;;;;;;;;;5075942;28;20076;-71
2021/12/03 01:27:48;;;;;;;12.65;5.90;;;;;;;;;;5085582;28;20151;-69
2021/12/03 01:30:15;;;;;;;9.60;5.60;;;;;;;;;;5073049;28;20049;-71
2021/12/03 01:32:42;;;;;;;11.10;6.13;;;;;;;;;;5081676;28;20427;-72
2021/12/03 01:35:09;;;;;;;11.52;6.20;;;;;;;;;;5085648;28;20139;-71
2021/12/03 01:37:36;;;;;;;11.18;6.15;;;;;;;;;;5090233;28;20048;-71
2021/12/03 01:40:04;;;;;;;9.48;5.65;;;;;;;;;;5072151;28;20140;-71
2021/12/03 01:42:31;;;;;;;11.63;5.60;;;;;;;;;;5077269;28;20240;-72
2021/12/03 01:44:57;;;;;;;7.43;5.05;;;;;;;;;;5091784;28;20526;-71
2021/12/03 01:47:23;;;;;;;9.80;6.20;;;;;;;;;;5081239;28;20063;-71
2021/12/03 01:49:50;;;;;;;8.10;5.10;;;;;;;;;;5075378;28;20053;-71
2021/12/03 01:52:16;;;;;;;13.77;6.10;;;;;;;;;;5058176;28;20523;-72
2021/12/03 01:54:43;;;;;;;7.28;4.55;;;;;;;;;;5074643;28;20063;-70
2021/12/03 01:57:09;;;;;;;13.57;4.93;;;;;;;;;;5087048;28;20055;-70
2021/12/03 01:59:35;;;;;;;8.45;5.25;;;;;;;;;;5083929;28;20420;-71
2021/12/03 02:02:02;;;;;;;8.63;4.70;;;;;;;;;;5092084;28;20067;-71
2021/12/03 02:04:28;;;;;;;11.50;5.63;;;;;;;;;;5094553;28;20146;-70
2021/12/03 02:06:55;;;;;;;7.40;5.38;;;;;;;;;;5080709;28;20053;-71
2021/12/03 02:09:21;;;;;;;11.25;5.63;;;;;;;;;;5082096;28;20516;-71
2021/12/03 02:11:47;;;;;;;7.68;4.93;;;;;;;;;;5094123;28;20058;-71
2021/12/03 02:14:14;;;;;;;9.38;5.65;;;;;;;;;;5088395;28;20512;-71
2021/12/03 02:16:43;;;;;;;9.07;5.35;;;;;;;;;;5081280;28;20055;-71
2021/12/03 02:19:09;;;;;;;6.13;4.60;;;;;;;;;;5073755;28;20086;-71
2021/12/03 02:21:36;;;;;;;12.85;6.05;;;;;;;;;;5090407;28;20064;-71
2021/12/03 02:24:02;;;;;;;4.97;4.22;;;;;;;;;;5075754;28;20064;-72
2021/12/03 02:26:28;;;;;;;8.43;4.80;;;;;;;;;;5066084;28;20087;-69
2021/12/03 02:28:55;;;;;;;9.18;4.80;;;;;;;;;;5075900;28;20049;-71
2021/12/03 02:31:22;;;;;;;10.77;4.78;;;;;;;;;;5079017;28;20052;-70
2021/12/03 02:33:49;;;;;;;11.32;4.45;;;;;;;;;;5092607;28;20059;-70
2021/12/03 02:36:16;;;;;;;7.18;4.57;;;;;;;;;;5079545;28;20053;-71
2021/12/03 02:38:43;;;;;;;6.15;3.97;;;;;;;;;;5060824;28;20566;-72
2021/12/03 02:41:10;;;;;;;10.02;4.43;;;;;;;;;;5085637;28;20465;-70
2021/12/03 02:43:36;;;;;;;5.40;4.50;;;;;;;;;;5079381;28;20103;-71
2021/12/03 02:46:03;;;;;;;8.77;4.25;;;;;;;;;;5091214;28;20127;-69
2021/12/03 02:48:31;;;;;;;7.30;4.75;;;;;;;;;;5095391;28;20048;-70
2021/12/03 02:50:58;;;;;;;9.25;4.20;;;;;;;;;;5084395;28;20061;-70
2021/12/03 02:53:24;;;;;;;11.70;4.63;;;;;;;;;;5080763;28;20496;-70
2021/12/03 02:55:51;;;;;;;5.18;4.10;;;;;;;;;;5075430;28;20052;-70
2021/12/03 02:58:18;;;;;;;8.23;4.63;;;;;;;;;;5075454;28;20069;-70
2021/12/03 03:00:46;;;;;;;10.60;4.57;;;;;;;;;;5084464;28;20049;-70
2021/12/03 03:03:12;;;;;;;9.07;4.30;;;;;;;;;;5086398;28;20048;-71
2021/12/03 03:05:39;;;;;;;12.90;4.40;;;;;;;;;;5091193;28;20056;-70
2021/12/03 03:08:05;;;;;;;8.25;3.97;;;;;;;;;;5087316;28;20060;-71
2021/12/03 03:10:39;;;;;;;7.25;4.28;;;;;;;;;;5094233;28;20190;-72
2021/12/03 03:13:05;;;;;;;6.47;3.45;;;;;;;;;;5086199;28;20064;-72
2021/12/03 03:15:32;;;;;;;9.45;4.63;;;;;;;;;;5074117;28;20182;-72
2021/12/03 03:18:07;;;;;;;12.23;3.78;;;;;;;;;;5074224;28;20550;-70
2021/12/03 03:20:33;;;;;;;5.93;3.63;;;;;;;;;;5079143;28;20500;-70
2021/12/03 03:23:00;;;;;;;8.45;3.42;;;;;;;;;;5072396;28;20076;-68
2021/12/03 03:25:26;;;;;;;5.22;2.47;;;;;;;;;;5082748;28;20060;-71
2021/12/03 03:27:53;;;;;;;6.40;3.10;;;;;;;;;;5069350;28;20057;-72
2021/12/03 03:30:19;;;;;;;7.55;3.67;;;;;;;;;;5085160;28;20057;-71
2021/12/03 03:32:47;;;;;;;6.05;2.88;;;;;;;;;;5082654;28;20057;-71
2021/12/03 03:35:14;;;;;;;10.15;3.25;;;;;;;;;;5090134;28;20049;-71
2021/12/03 03:37:40;;;;;;;8.55;4.22;;;;;;;;;;5073772;28;20053;-71
2021/12/03 03:40:09;;;;;;;5.43;3.30;;;;;;;;;;5073600;28;20144;-71
2021/12/03 03:42:35;;;;;;;7.50;3.17;;;;;;;;;;5086184;28;20049;-71
2021/12/03 03:45:03;;;;;;;9.02;3.75;;;;;;;;;;5086098;28;20059;-71
2021/12/03 03:47:30;;;;;;;6.53;3.45;;;;;;;;;;5086151;28;20564;-71
2021/12/03 03:49:56;;;;;;;6.75;3.45;;;;;;;;;;5094213;28;20051;-72
2021/12/03 03:52:23;;;;;;;5.95;3.50;;;;;;;;;;5093065;28;20053;-72
2021/12/03 03:54:49;;;;;;;6.15;3.75;;;;;;;;;;5079423;28;20580;-72
2021/12/03 03:57:15;;;;;;;11.63;4.65;;;;;;;;;;5078682;28;20057;-71
2021/12/03 03:59:41;;;;;;;10.32;4.15;;;;;;;;;;5073449;28;20053;-71
2021/12/03 04:02:08;;;;;;;8.60;4.10;;;;;;;;;;5077619;28;20055;-71
2021/12/03 04:04:34;;;;;;;9.95;5.25;;;;;;;;;;5089383;28;20075;-72
2021/12/03 04:07:00;;;;;;;11.88;5.05;;;;;;;;;;5091962;28;20135;-71
2021/12/03 04:09:27;;;;;;;11.57;5.07;;;;;;;;;;5083093;28;20053;-69
2021/12/03 04:11:53;;;;;;;10.00;6.07;;;;;;;;;;5082675;28;20088;-72
2021/12/03 04:14:19;;;;;;;7.88;5.30;;;;;;;;;;5073160;28;20049;-70
2021/12/03 04:16:46;;;;;;;18.52;6.55;;;;;;;;;;5073963;28;20053;-71
2021/12/03 04:19:13;;;;;;;9.10;6.20;;;;;;;;;;5061867;28;20059;-71
2021/12/03 04:21:39;;;;;;;11.45;6.53;;;;;;;;;;5078400;28;20071;-70
2021/12/03 04:24:06;;;;;;;14.48;6.90;;;;;;;;;;5072633;28;20056;-70
2021/12/03 04:26:32;;;;;;;10.00;7.25;;;;;;;;;;5075825;28;20521;-71
2021/12/03 04:28:59;;;;;;;12.02;7.20;;;;;;;;;;5082284;28;20494;-71
2021/12/03 04:31:25;;;;;;;11.15;7.25;;;;;;;;;;5081425;28;20052;-72
2021/12/03 04:33:52;;;;;;;11.95;7.70;;;;;;;;;;5076204;28;20080;-72
2021/12/03 04:36:18;;;;;;;12.07;7.85;;;;;;;;;;5072338;28;20081;-72
2021/12/03 04:38:45;;;;;;;12.25;8.02;;;;;;;;;;5073652;28;20084;-71
2021/12/03 04:41:11;;;;;;;15.38;8.38;;;;;;;;;;5073391;28;20060;-72
2021/12/03 04:43:37;;;;;;;12.38;7.72;;;;;;;;;;5093540;28;20100;-72
2021/12/03 04:46:04;;;;;;;16.48;7.80;;;;;;;;;;5092092;28;20053;-71
2021/12/03 04:48:30;;;;;;;15.15;7.68;;;;;;;;;;5072524;28;20049;-72
2021/12/03 04:50:57;;;;;;;16.95;9.15;;;;;;;;;;5073894;28;20082;-72
2021/12/03 04:53:23;;;;;;;11.90;8.13;;;;;;;;;;5073657;28;20099;-73
2021/12/03 04:55:50;;;;;;;14.95;8.95;;;;;;;;;;5069882;28;20516;-74
2021/12/03 04:58:17;;;;;;;15.70;9.60;;;;;;;;;;5053447;28;20064;-73
2021/12/03 05:00:46;;;;;;;20.00;10.57;;;;;;;;;;5058736;28;20061;-73
2021/12/03 05:03:13;;;;;;;18.65;10.77;;;;;;;;;;5073434;28;20087;-74
2021/12/03 05:05:44;;;;;;;20.13;10.88;;;;;;;;;;5071851;28;20538;-74
2021/12/03 05:08:11;;;;;;;18.27;11.15;;;;;;;;;;5070050;28;20139;-73
2021/12/03 05:10:38;;;;;;;17.30;11.38;;;;;;;;;;5073524;28;20152;-73
2021/12/03 05:13:16;;;;;;;23.83;11.15;;;;;;;;;;5069090;28;20551;-74
2021/12/03 05:15:43;;;;;;;14.80;10.50;;;;;;;;;;5065960;28;20069;-73
2021/12/03 05:18:11;;;;;;;14.65;9.85;;;;;;;;;;5072987;28;20063;-74
2021/12/03 05:20:37;;;;;;;15.43;10.50;;;;;;;;;;5073240;28;20045;-73
2021/12/03 05:23:04;;;;;;;16.02;10.60;;;;;;;;;;5071613;28;20057;-73
2021/12/03 05:25:31;;;;;;;12.93;10.02;;;;;;;;;;5071685;28;20583;-73
2021/12/03 05:27:58;;;;;;;16.27;10.35;;;;;;;;;;5072702;28;20098;-74
2021/12/03 05:30:24;;;;;;;16.58;10.23;;;;;;;;;;5070464;28;20468;-73
2021/12/03 05:32:51;;;;;;;19.30;10.88;;;;;;;;;;5071097;28;20055;-73
2021/12/03 05:35:17;;;;;;;18.08;10.43;;;;;;;;;;5072297;28;20504;-73
2021/12/03 05:37:44;;;;;;;20.15;10.77;;;;;;;;;;5071008;28;20064;-74
2021/12/03 05:40:11;;;;;;;15.27;9.73;;;;;;;;;;5072107;28;20149;-73
2021/12/03 05:42:38;;;;;;;15.15;9.98;;;;;;;;;;5071821;28;20053;-74
2021/12/03 05:45:06;;;;;;;15.05;10.38;;;;;;;;;;5052965;28;20053;-73
2021/12/03 05:47:32;;;;;;;20.95;10.85;;;;;;;;;;5058374;28;20060;-73
2021/12/03 05:49:58;;;;;;;13.93;9.93;;;;;;;;;;5068412;28;20079;-73
2021/12/03 05:52:25;;;;;;;18.98;11.00;;;;;;;;;;5073005;28;20080;-73
2021/12/03 05:54:51;;;;;;;16.25;9.38;;;;;;;;;;5073954;28;20148;-72
2021/12/03 05:57:17;;;;;;;17.83;11.45;;;;;;;;;;5070010;28;20063;-72
2021/12/03 05:59:44;;;;;;;14.32;9.82;;;;;;;;;;5068801;28;20127;-73
2021/12/03 06:02:10;;;;;;;18.55;10.98;;;;;;;;;;5069725;28;20057;-71
2021/12/03 06:04:37;;;;;;;17.73;10.15;;;;;;;;;;5070294;28;20452;-72
2021/12/03 06:07:04;;;;;;;21.27;11.57;;;;;;;;;;5067112;28;20059;-72
2021/12/03 06:09:30;;;;;;;22.52;12.10;;;;;;;;;;5070469;28;20052;-73
2021/12/03 06:11:57;;;;;;;26.95;12.43;;;;;;;;;;5072111;28;20151;-71
2021/12/03 06:14:23;;;;;;;23.33;13.10;;;;;;;;;;5070038;28;20045;-72
2021/12/03 06:16:50;;;;;;;24.70;12.43;;;;;;;;;;5069139;28;20060;-72
2021/12/03 06:19:17;;;;;;;21.95;12.57;;;;;;;;;;5068284;28;20076;-73
2021/12/03 06:21:43;;;;;;;27.05;12.90;;;;;;;;;;5060590;28;20508;-73
2021/12/03 06:24:09;;;;;;;21.58;12.50;;;;;;;;;;5060567;28;20060;-71
2021/12/03 06:26:35;;;;;;;22.83;12.32;;;;;;;;;;5057544;28;20556;-73
2021/12/03 06:29:02;;;;;;;18.63;11.27;;;;;;;;;;5071643;28;20053;-72
2021/12/03 06:31:29;;;;;;;23.92;13.02;;;;;;;;;;5070866;28;20139;-71
2021/12/03 06:33:55;;;;;;;23.70;12.45;;;;;;;;;;5071798;28;20519;-72
2021/12/03 06:36:21;;;;;;;19.77;13.35;;;;;;;;;;5069457;28;20052;-70
2021/12/03 06:38:48;;;;;;;28.23;12.40;;;;;;;;;;5068654;28;20080;-70
2021/12/03 06:41:14;;;;;;;19.45;11.82;;;;;;;;;;5069453;28;20131;-69
2021/12/03 06:43:41;;;;;;;18.88;11.65;;;;;;;;;;5068528;28;20057;-73
2021/12/03 06:46:07;;;;;;;18.45;11.27;;;;;;;;;;5067891;28;20084;-72
2021/12/03 06:48:33;;;;;;;22.92;11.65;;;;;;;;;;5073833;28;20134;-74
2021/12/03 06:51:00;;;;;;;20.63;11.88;;;;;;;;;;5075493;28;20053;-73
2021/12/03 06:53:34;;;;;;;26.70;12.45;;;;;;;;;;5075457;28;20079;-73
2021/12/03 06:56:09;;;;;;;26.20;13.38;;;;;;;;;;5074980;28;20061;-73
2021/12/03 06:58:35;;;;;;;19.13;11.63;;;;;;;;;;5084941;28;20059;-74
2021/12/03 07:01:02;;;;;;;21.48;11.23;;;;;;;;;;5095967;28;20077;-74
2021/12/03 07:03:29;;;;;;;27.83;13.27;;;;;;;;;;5086390;28;20111;-73
2021/12/03 07:05:55;;;;;;;32.30;18.58;;;;;;;;;;5075527;28;20049;-71
2021/12/03 07:08:21;;;;;;;22.42;11.70;;;;;;;;;;5078129;28;20500;-74
2021/12/03 07:10:48;;;;;;;22.42;11.13;;;;;;;;;;5076870;28;20140;-73
2021/12/03 07:13:14;;;;;;;21.02;10.48;;;;;;;;;;5080945;28;20503;-73
2021/12/03 07:15:40;;;;;;;22.08;10.90;;;;;;;;;;5075172;28;20057;-73
2021/12/03 07:18:07;;;;;;;23.58;10.88;;;;;;;;;;5067599;28;20053;-72
2021/12/03 07:20:33;;;;;;;22.77;9.88;;;;;;;;;;5062731;28;20055;-72
2021/12/03 07:23:00;;;;;;;18.70;9.68;;;;;;;;;;5074836;28;20057;-72
2021/12/03 07:25:26;;;;;;;22.67;9.98;;;;;;;;;;5084489;28;20462;-72
2021/12/03 07:27:53;;;;;;;23.60;9.75;;;;;;;;;;5089068;28;20048;-74
2021/12/03 07:30:19;;;;;;;21.98;9.48;;;;;;;;;;5095078;28;20052;-72
2021/12/03 07:32:46;;;;;;;14.57;7.60;;;;;;;;;;5091763;28;20059;-72
2021/12/03 07:35:13;;;;;;;20.02;9.02;;;;;;;;;;5076755;28;20052;-73
2021/12/03 07:37:39;;;;;;;15.63;7.43;;;;;;;;;;5077083;28;20053;-73
2021/12/03 07:40:07;;;;;;;19.17;8.10;;;;;;;;;;5072529;28;20170;-73
2021/12/03 07:42:34;;;;;;;20.73;8.23;;;;;;;;;;5074625;28;20053;-72
2021/12/03 07:45:00;;;;;;;19.50;8.40;;;;;;;;;;5068354;28;20049;-73
2021/12/03 07:47:27;;;;;;;23.63;8.30;;;;;;;;;;5055089;28;20049;-73
2021/12/03 07:49:53;;;;;;;19.98;8.02;;;;;;;;;;5064364;28;20057;-71
2021/12/03 07:52:20;;;;;;;15.77;8.15;;;;;;;;;;5074903;28;20528;-71
2021/12/03 07:54:48;;;;;;;17.58;8.88;;;;;;;;;;5074334;28;20057;-73
2021/12/03 07:57:14;;;;;;;18.20;7.57;;;;;;;;;;5083547;28;20056;-73
2021/12/03 07:59:41;;;;;;;14.65;7.68;;;;;;;;;;5087786;28;20638;-73
2021/12/03 08:02:07;;;;;;;17.55;7.35;;;;;;;;;;5078439;28;20055;-74
2021/12/03 08:04:34;;;;;;;15.77;6.80;;;;;;;;;;5074263;28;20207;-72
2021/12/03 08:07:01;;;;;;;18.48;7.28;;;;;;;;;;5075001;28;20141;-72
2021/12/03 08:09:27;;;;;;;15.85;6.60;;;;;;;;;;5094451;28;20053;-72
2021/12/03 08:11:54;;;;;;;20.15;6.82;;;;;;;;;;5081650;28;20075;-71
2021/12/03 08:14:20;;;;;;;11.43;5.45;;;;;;;;;;5074255;28;20513;-72
2021/12/03 08:16:46;;;;;;;16.25;6.38;;;;;;;;;;5074476;28;20052;-72
2021/12/03 08:19:13;;;;;;;20.77;6.50;;;;;;;;;;5076194;28;20049;-71
2021/12/03 08:21:39;;;;;;;12.30;5.03;;;;;;;;;;5072083;28;20048;-71
2021/12/03 08:24:05;;;;;;;12.15;5.75;;;;;;;;;;5073496;28;20107;-70
2021/12/03 08:26:32;;;;;;;15.40;5.63;;;;;;;;;;5073317;28;20494;-71
2021/12/03 08:28:59;;;;;;;17.40;5.47;;;;;;;;;;5074338;28;20053;-71
2021/12/03 08:31:26;;;;;;;18.10;5.95;;;;;;;;;;5074019;28;20056;-69
2021/12/03 08:33:52;;;;;;;16.60;6.00;;;;;;;;;;5087669;28;20060;-69
2021/12/03 08:36:19;;;;;;;15.20;6.22;;;;;;;;;;5071482;28;20048;-68
2021/12/03 08:38:45;;;;;;;14.50;6.47;;;;;;;;;;5073346;28;20121;-71
2021/12/03 08:41:17;;;;;;;13.77;6.70;;;;;;;;;;5068413;28;20072;-69
2021/12/03 08:43:44;;;;;;;14.65;6.13;;;;;;;;;;5080370;28;20075;-72
2021/12/03 08:46:19;;;;;;;14.07;7.05;;;;;;;;;;5072704;28;20062;-71
2021/12/03 08:48:47;;;;;;;21.08;6.47;;;;;;;;;;5071170;28;20103;-71
2021/12/03 08:56:29;;;;;;;22.92;6.10;;;;;;;;;;5076943;28;20085;-70
2021/12/03 08:58:57;;;;;;;15.68;6.43;;;;;;;;;;5076893;28;20140;-70
2021/12/03 09:01:23;;;;;;;18.60;7.32;;;;;;;;;;5071679;28;20063;-69
2021/12/03 09:03:52;;;;;;;18.60;6.03;;;;;;;;;;5076947;28;20103;-72
2021/12/03 09:06:18;;;;;;;18.45;6.18;;;;;;;;;;5072506;28;20132;-71
2021/12/03 09:08:45;;;;;;;21.60;5.68;;;;;;;;;;5076360;28;20053;-70
2021/12/03 09:11:11;;;;;;;21.77;6.93;;;;;;;;;;5070888;28;20087;-69
2021/12/03 09:13:39;;;;;;;16.10;7.40;;;;;;;;;;5071048;28;20053;-70
2021/12/03 09:16:12;;;;;;;19.15;5.80;;;;;;;;;;5071152;28;20064;-70
2021/12/03 09:18:44;;;;;;;18.77;6.70;;;;;;;;;;5070338;28;20049;-71
2021/12/03 09:21:32;;;;;;;15.23;6.45;;;;;;;;;;5072921;28;20061;-71
2021/12/03 09:24:11;;;;;;;24.50;6.60;;;;;;;;;;5075713;28;20076;-69
2021/12/03 09:26:41;;;;;;;19.95;5.50;;;;;;;;;;5076830;28;20136;-72
2021/12/03 09:29:10;;;;;;;16.67;5.15;;;;;;;;;;5081108;28;20080;-70
2021/12/03 09:31:37;;;;;;;22.88;6.75;;;;;;;;;;5070357;28;20055;-71
2021/12/03 09:34:09;;;;;;;23.02;6.70;;;;;;;;;;5070971;28;20140;-70
2021/12/03 09:36:41;;;;;;;21.30;6.28;;;;;;;;;;5071100;28;20084;-70
2021/12/03 09:39:09;;;;;;;19.15;6.07;;;;;;;;;;5073807;28;20143;-69
2021/12/03 09:41:35;;;;;;;23.02;7.18;;;;;;;;;;5070489;28;20059;-71
2021/12/03 09:44:02;;;;;;;18.42;5.28;;;;;;;;;;5071760;28;20055;-70
2021/12/03 09:46:30;;;;;;;18.83;6.20;;;;;;;;;;5069498;28;20076;-70
2021/12/03 09:51:38;;;;;;;13.85;6.65;;;;;;;;;;5055456;28;20532;-70
2021/12/03 09:56:55;;;;;;;16.63;5.80;;;;;;;;;;5072217;28;20162;-70
2021/12/03 10:15:02;;;;;;;15.85;4.18;;;;;;;;;;5077797;28;20156;-70
2021/12/03 10:20:31;;;;;;;19.47;4.07;;;;;;;;;;5088720;28;20048;-70
2021/12/03 10:27:02;;;;;;;11.60;3.63;;;;;;;;;;5068754;28;20050;-70
2021/12/03 10:40:30;;;;;;;13.05;4.05;;;;;;;;;;5074819;28;20057;-70
2021/12/03 10:43:12;;;;;;;18.70;4.28;;;;;;;;;;5073971;28;20488;-71
2021/12/03 10:59:09;;;;;;;17.02;5.32;;;;;;;;;;5083455;28;20070;-70
2021/12/03 11:01:52;;;;;;;10.77;4.07;;;;;;;;;;5079197;28;20048;-71
2021/12/03 12:14:37;;;;;;;11.05;4.40;;;;;;;;;;5072022;28;20464;-69
2021/12/03 12:16:52;;;;;;;9.57;3.58;;;;;;;;;;5051944;28;20508;-71
2021/12/03 12:19:15;;;;;;;12.02;4.25;;;;;;;;;;5051658;28;20506;-69
2021/12/03 12:29:22;;;;;;;9.05;4.82;;;;;;;;;;5074036;28;20128;-70
2021/12/03 12:36:31;;;;;;;7.93;3.80;;;;;;;;;;5073424;28;20049;-69
2021/12/03 12:42:24;;;;;;;10.52;3.38;;;;;;;;;;5071381;28;20428;-69
2021/12/03 13:04:45;;;;;;;10.80;4.47;;;;;;;;;;5071733;28;20053;-71
2021/12/03 13:07:23;;;;;;;6.10;3.00;;;;;;;;;;5071105;28;20045;-70
2021/12/03 13:14:49;;;;;;;8.00;3.75;;;;;;;;;;5071696;28;20059;-73
2021/12/03 13:20:35;;;;;;;8.40;3.80;;;;;;;;;;5072359;28;20172;-71
2021/12/03 13:23:37;;;;;;;7.00;3.72;;;;;;;;;;5072657;28;20076;-72
2021/12/03 13:30:03;;;;;;;12.68;3.83;;;;;;;;;;5061906;28;20067;-70
2021/12/03 13:38:50;;;;;;;6.25;3.58;;;;;;;;;;5072148;28;20466;-71
2021/12/03 14:02:47;;;;;;;6.82;3.88;;;;;;;;;;5076811;28;20053;-71
2021/12/03 14:05:30;;;;;;;8.68;4.35;;;;;;;;;;5074758;28;20103;-72
2021/12/03 14:14:25;;;;;;;11.07;5.65;;;;;;;;;;5072480;28;20057;-71
2021/12/03 14:19:59;;;;;;;13.65;5.47;;;;;;;;;;5074131;28;20053;-76
2021/12/03 14:26:31;;;;;;;7.45;5.10;;;;;;;;;;5073679;28;20141;-70
2021/12/03 14:41:44;;;;;;;10.50;6.30;;;;;;;;;;5073526;28;20157;-70
2021/12/03 14:49:37;;;;;;;9.15;6.90;;;;;;;;;;5074185;28;20053;-69
2021/12/03 14:52:34;;;;;;;8.23;6.57;;;;;;;;;;5072944;28;20049;-69
2021/12/03 14:54:58;;;;;;;7.50;6.57;;;;;;;;;;5073957;28;20140;-70
2021/12/03 14:57:33;;;;;;;8.45;7.47;;;;;;;;;;5073296;28;20076;-68
2021/12/03 15:00:35;;;;;;;11.63;8.38;;;;;;;;;;5073174;28;20053;-70
2021/12/03 15:06:00;;;;;;;9.65;8.20;;;;;;;;;;5070813;28;20053;-69
2021/12/03 15:08:25;;;;;;;10.48;8.38;;;;;;;;;;5072286;28;20055;-69
2021/12/03 15:14:09;;;;;;;11.60;8.82;;;;;;;;;;5072932;28;20069;-68
2021/12/03 15:21:37;;;;;;;13.48;10.25;;;;;;;;;;5072443;28;20059;-68
2021/12/03 15:24:34;;;;;;;11.45;10.35;;;;;;;;;;5087352;28;20053;-75
2021/12/03 15:32:47;;;;;;;10.75;9.35;;;;;;;;;;5073396;28;20155;-71
2021/12/03 15:56:41;;;;;;;14.55;12.88;;;;;;;;;;5052381;28;20075;-70
2021/12/03 16:04:35;;;;;;;14.13;12.60;;;;;;;;;;5076876;28;20512;-71
2021/12/03 16:12:48;;;;;;;17.15;13.15;;;;;;;;;;5052401;28;20052;-70
2021/12/03 16:17:59;;;;;;;11.40;10.30;;;;;;;;;;5060605;28;20049;-70
2021/12/03 16:43:34;;;;;;;14.23;12.73;;;;;;;;;;5073455;28;20485;-69
2021/12/03 16:50:28;;;;;;;14.77;13.13;;;;;;;;;;5073737;28;20085;-69
2021/12/03 16:52:50;;;;;;;15.60;13.95;;;;;;;;;;5072959;28;20051;-70
2021/12/03 16:55:17;;;;;;;15.65;14.00;;;;;;;;;;5071261;28;20048;-70
2021/12/03 16:57:46;;;;;;;16.33;13.52;;;;;;;;;;5071359;28;20059;-70
2021/12/03 17:00:19;;;;;;;14.20;12.70;;;;;;;;;;5076530;28;20386;-71
2021/12/03 17:02:53;;;;;;;15.05;13.43;;;;;;;;;;5073022;28;20057;-70
2021/12/03 17:08:26;;;;;;;16.08;13.18;;;;;;;;;;5067343;28;20140;-68
2021/12/03 17:13:52;;;;;;;18.67;14.40;;;;;;;;;;5035610;28;20511;-68
2021/12/03 17:16:46;;;;;;;17.73;14.77;;;;;;;;;;5070202;28;20059;-69
2021/12/03 17:22:39;;;;;;;17.27;14.90;;;;;;;;;;5068895;28;20080;-70
2021/12/03 17:56:52;;;;;;;19.08;15.20;;;;;;;;;;5072297;28;20052;-69
2021/12/03 18:00:05;;;;;;;17.23;14.90;;;;;;;;;;5079276;28;20591;-69
2021/12/03 18:02:18;;;;;;;19.63;16.42;;;;;;;;;;5065188;28;20048;-71
2021/12/03 18:07:42;;;;;;;16.25;11.80;;;;;;;;;;5061966;28;20078;-70
2021/12/03 18:15:43;;;;;;;17.88;14.90;;;;;;;;;;5067807;28;20057;-70
2021/12/03 18:18:26;;;;;;;18.90;15.03;;;;;;;;;;5063113;28;20056;-69
2021/12/03 18:43:25;;;;;;;16.70;14.68;;;;;;;;;;5061111;28;20049;-69
2021/12/03 18:46:08;;;;;;;16.58;13.93;;;;;;;;;;5074434;28;20523;-68
2021/12/03 18:53:58;;;;;;;19.10;15.15;;;;;;;;;;5075184;28;20055;-68
2021/12/03 18:59:10;;;;;;;18.15;13.88;;;;;;;;;;5066182;28;20136;-69
2021/12/03 19:01:41;;;;;;;16.02;13.73;;;;;;;;;;5064250;28;20110;-67
2021/12/03 19:04:23;;;;;;;20.00;14.20;;;;;;;;;;5063101;28;20137;-69
2021/12/03 19:07:08;;;;;;;20.42;14.73;;;;;;;;;;5058592;28;20049;-70
2021/12/03 19:09:47;;;;;;;17.10;13.10;;;;;;;;;;5072294;28;20052;-69
2021/12/03 19:12:18;;;;;;;19.05;14.95;;;;;;;;;;5075962;28;20045;-69
2021/12/03 19:14:51;;;;;;;17.65;13.90;;;;;;;;;;5067640;28;20107;-69
2021/12/03 19:17:17;;;;;;;20.02;14.70;;;;;;;;;;5064222;28;20053;-68
2021/12/03 19:19:46;;;;;;;21.13;13.98;;;;;;;;;;5061991;28;20061;-69
2021/12/03 19:22:31;;;;;;;20.85;15.02;;;;;;;;;;5072062;28;20053;-68
2021/12/03 19:24:58;;;;;;;19.67;14.38;;;;;;;;;;5072676;28;20515;-69
2021/12/03 19:27:25;;;;;;;17.23;13.73;;;;;;;;;;5070510;28;20063;-70
2021/12/03 19:29:54;;;;;;;20.52;14.30;;;;;;;;;;5071654;28;20126;-69
2021/12/03 19:32:23;;;;;;;23.23;15.52;;;;;;;;;;5061973;28;20080;-69
2021/12/03 19:34:50;;;;;;;17.33;14.18;;;;;;;;;;5072907;28;20511;-68
2021/12/03 19:37:16;;;;;;;20.00;15.30;;;;;;;;;;5058212;28;20053;-69
2021/12/03 19:39:45;;;;;;;21.67;15.18;;;;;;;;;;5059689;28;20061;-69
2021/12/03 19:42:18;;;;;;;18.77;15.13;;;;;;;;;;5072251;28;20053;-69
2021/12/03 19:44:57;;;;;;;17.30;13.48;;;;;;;;;;5068726;28;20057;-69
2021/12/03 19:47:48;;;;;;;17.65;13.32;;;;;;;;;;5062718;28;20136;-68
2021/12/03 19:52:56;;;;;;;20.60;13.57;;;;;;;;;;5072782;28;20084;-68
2021/12/03 19:55:23;;;;;;;18.75;14.38;;;;;;;;;;5072468;28;20183;-68
2021/12/03 19:57:49;;;;;;;18.55;14.23;;;;;;;;;;5071115;28;20135;-68
2021/12/03 20:00:15;;;;;;;16.25;13.20;;;;;;;;;;5072017;28;20575;-68
2021/12/03 20:02:43;;;;;;;18.45;13.13;;;;;;;;;;5067912;28;20144;-69
2021/12/03 20:05:10;;;;;;;16.63;13.52;;;;;;;;;;5071914;28;20437;-69
2021/12/03 20:07:38;;;;;;;18.08;12.98;;;;;;;;;;5061510;28;20057;-69
2021/12/03 20:10:16;;;;;;;17.70;13.43;;;;;;;;;;5071900;28;20160;-69
2021/12/03 20:12:43;;;;;;;17.77;13.50;;;;;;;;;;5071740;28;20143;-68
2021/12/03 20:15:14;;;;;;;15.50;11.75;;;;;;;;;;5060604;28;20147;-67
2021/12/03 20:17:51;;;;;;;17.77;13.10;;;;;;;;;;5068174;28;20590;-69
2021/12/03 20:20:24;;;;;;;19.63;13.88;;;;;;;;;;5070572;28;20097;-68
2021/12/03 20:23:05;;;;;;;17.70;12.48;;;;;;;;;;5073762;28;20063;-69
2021/12/03 20:26:08;;;;;;;15.10;12.05;;;;;;;;;;5079696;28;20085;-68
2021/12/03 20:28:49;;;;;;;17.88;12.88;;;;;;;;;;5070379;28;20068;-70
2021/12/03 20:31:18;;;;;;;18.77;13.25;;;;;;;;;;5071459;28;20092;-69
2021/12/03 20:34:03;;;;;;;16.65;12.80;;;;;;;;;;5071707;28;20059;-68
2021/12/03 20:39:25;;;;;;;14.93;12.07;;;;;;;;;;5068372;28;20536;-70
2021/12/03 20:44:47;;;;;;;15.43;12.25;;;;;;;;;;5055922;28;20050;-69
2021/12/03 21:07:57;;;;;;;14.88;10.35;;;;;;;;;;5064364;28;20056;-70
2021/12/03 21:08:42;;;;;;;15.38;11.88;;;;;;;;;;5065284;28;20044;-70
2021/12/03 21:13:47;;;;;;;15.25;12.38;;;;;;;;;;5065490;28;20057;-70
2021/12/03 21:16:29;;;;;;;14.57;11.93;;;;;;;;;;5068193;28;20053;-71
2021/12/03 21:19:18;;;;;;;15.60;12.40;;;;;;;;;;5072680;28;20147;-69
2021/12/03 21:21:54;;;;;;;14.70;11.30;;;;;;;;;;5073094;28;20511;-70
2021/12/03 21:24:20;;;;;;;14.30;11.20;;;;;;;;;;5065739;28;20087;-69
2021/12/03 21:26:48;;;;;;;15.18;11.68;;;;;;;;;;5072563;28;20480;-69
2021/12/03 21:29:39;;;;;;;15.25;12.27;;;;;;;;;;5074978;28;20056;-71
2021/12/03 21:32:20;;;;;;;16.00;12.73;;;;;;;;;;5082819;28;20057;-70
2021/12/03 21:40:54;;;;;;;17.25;12.85;;;;;;;;;;5072407;28;20059;-70
2021/12/03 21:43:11;;;;;;;17.00;12.77;;;;;;;;;;5072548;28;20051;-71
2021/12/03 21:45:37;;;;;;;15.80;12.95;;;;;;;;;;5073610;28;20630;-70
2021/12/03 21:48:03;;;;;;;16.85;13.20;;;;;;;;;;5071862;28;20096;-68
2021/12/03 21:50:30;;;;;;;16.90;13.57;;;;;;;;;;5072226;28;20053;-70